WMKJ/JHB METAR and TAF weather

Enter ICAO airport designator
Station Type Date Time Source
WMKJ METAR 2020/07/02 22:00 UTC NOAA

WMKJ 022200Z 00000KT 9999 FEW023 26/25 Q1009


Station Type Date Time Source
WMKJ Decoded METAR 2020/07/02 22:00 UTC NOAA

Johore Bharu / Senai, Malaysia (WMKJ) 01-38N 103-40E 40M
Jul 02, 2020 - 06:00 PM EDT / 2020.07.02 2200 UTC
Wind: Calm:0
Visibility: greater than 7 mile(s):0
Sky conditions: mostly clear
Temperature: 78 F (26 C)
Dew Point: 77 F (25 C)
Relative Humidity: 94%
Pressure (altimeter): 29.80 in. Hg (1009 hPa)
ob: WMKJ 022200Z 00000KT 9999 FEW023 26/25 Q1009
cycle: 22

Station Type Date Time Source
WMKJ TAF 2020/07/02 18:09 UTC NOAA

TAF TAF WMKJ 021700Z 0218/0318 15005KT 9999 FEW018
TEMPO 0307/0311 16006G20KT 4000 TSRA FEW017CB SCT018

Example: see airport list